Du har inga inställningar för hoppväder.nu

Hoppväder.nu

Senast uppdaterat 01:44

UTC-tid

2020-07-06 kl. 23:44


Sol och måne

Solen går upp 3:15 och går ner 23:35 (beräknade cirkatider)
Nästa fullmåne blir om 27 dagar (2020-08-03)

METAR

ESNN (Sundsvall)
(1464 minuter sedan)
ESNN 062320Z AUTO 31010KT 9999 R16///// R34/P2000N OVC014/// 12/10 Q0991=



ESNK (Kramfors)
(1464 minuter sedan)
ESNK 062320Z AUTO 31009KT 9999 OVC014/// 12/10 Q0991=



ESNO (Örnsköldsvik)
(1464 minuter sedan)
ESNO 062320Z AUTO 33005KT 9999 NCD 09/08 Q0990=



ESNY (Söderhamn)
ESNY NIL=



ESNZ (Östersund)
(1464 minuter sedan)
ESNZ 062320Z AUTO 30016KT 9999 -RA BKN017/// OVC023/// 08/07 Q0995=



TAF

ESNN (Sundsvall)
ESNN



ESNK (Kramfors)
ESNK



ESNO (Örnsköldsvik)
ESNO



ESNY (Söderhamn)
ESNY



ESNZ (Östersund)
ESNZ





Kodnycklar till TAF och METAR






LHP

(Sundsvall är område se42d i Delområde 4)

Prognos är inte uppdaterad






Preliminär prognos